createdAt,value
2023-01-17T00:02:04.311Z,30.57
2023-01-17T00:05:25.544Z,29.37
2023-01-17T00:08:45.854Z,30.30
2023-01-17T00:11:48.127Z,28.23
2023-01-17T00:14:51.499Z,26.73
2023-01-17T00:17:54.137Z,30.07
2023-01-17T00:21:14.508Z,29.00
2023-01-17T00:24:35.255Z,25.83
2023-01-17T00:27:38.168Z,24.73
2023-01-17T00:30:40.426Z,27.67
2023-01-17T00:33:42.560Z,25.07
2023-01-17T00:36:44.749Z,26.47
2023-01-17T00:39:46.632Z,26.17
2023-01-17T00:42:48.925Z,26.63
2023-01-17T00:46:10.829Z,28.43
2023-01-17T00:49:31.936Z,24.43
2023-01-17T00:52:52.432Z,25.07
2023-01-17T00:56:13.521Z,25.10
2023-01-17T00:59:33.986Z,25.93
2023-01-17T01:02:55.373Z,25.97
2023-01-17T01:06:15.898Z,22.63
2023-01-17T01:09:36.871Z,24.07
2023-01-17T01:12:57.346Z,24.70
2023-01-17T01:16:24.208Z,24.67
2023-01-17T01:19:45.100Z,22.93
2023-01-17T01:23:06.485Z,24.10
2023-01-17T01:26:26.990Z,24.63
2023-01-17T01:29:48.036Z,25.17
2023-01-17T01:33:08.528Z,25.17
2023-01-17T01:36:10.934Z,23.93
2023-01-17T01:39:12.944Z,23.83
2023-01-17T01:42:16.346Z,26.20
2023-01-17T01:45:29.134Z,25.03
2023-01-17T01:48:39.768Z,21.07
2023-01-17T01:51:47.219Z,22.30
2023-01-17T01:54:58.613Z,21.43
2023-01-17T01:58:08.575Z,23.97
2023-01-17T02:01:11.104Z,24.03
2023-01-17T02:04:13.713Z,23.27
2023-01-17T02:07:25.512Z,23.27
2023-01-17T02:10:28.381Z,23.13
2023-01-17T02:13:31.445Z,23.43
2023-01-17T02:16:38.977Z,24.53
2023-01-17T02:19:43.968Z,24.00
2023-01-17T02:22:51.748Z,21.90
2023-01-17T02:26:30.867Z,23.43
2023-01-17T02:29:38.342Z,23.47
2023-01-17T02:32:56.799Z,24.93
2023-01-17T02:36:13.504Z,23.23
2023-01-17T02:39:28.305Z,24.90
2023-01-17T02:42:39.784Z,26.37
2023-01-17T02:45:42.261Z,28.77
2023-01-17T02:48:45.591Z,30.17
2023-01-17T02:51:55.260Z,30.20
2023-01-17T02:55:19.073Z,27.13
2023-01-17T02:58:34.426Z,29.53
2023-01-17T03:02:04.428Z,28.00
2023-01-17T03:05:20.198Z,28.50
2023-01-17T03:08:23.454Z,30.70
2023-01-17T03:11:27.756Z,28.67
2023-01-17T03:14:31.866Z,26.10
2023-01-17T03:17:34.248Z,29.07
2023-01-17T03:20:36.396Z,31.33
2023-01-17T03:23:38.832Z,25.70
2023-01-17T03:26:44.900Z,25.63
2023-01-17T03:29:47.133Z,29.93
2023-01-17T03:32:49.644Z,29.37
2023-01-17T03:35:52.860Z,30.07
2023-01-17T03:38:54.875Z,29.37
2023-01-17T03:41:57.115Z,31.37
2023-01-17T03:44:59.200Z,28.63
2023-01-17T03:48:01.455Z,28.40
2023-01-17T03:51:03.517Z,27.67
2023-01-17T03:54:05.947Z,25.93
2023-01-17T03:57:08.636Z,26.87
2023-01-17T04:00:11.470Z,28.60
2023-01-17T04:03:13.450Z,26.73
2023-01-17T04:06:15.728Z,27.60
2023-01-17T04:09:17.694Z,25.40
2023-01-17T04:12:20.039Z,25.20
2023-01-17T04:15:22.042Z,26.13
2023-01-17T04:18:25.006Z,25.50
2023-01-17T04:21:27.012Z,25.53
2023-01-17T04:24:29.255Z,27.33
2023-01-17T04:27:31.304Z,25.77
2023-01-17T04:30:33.918Z,26.03
2023-01-17T04:33:36.007Z,28.07
2023-01-17T04:36:38.239Z,25.30
2023-01-17T04:39:40.236Z,26.20
2023-01-17T04:42:45.391Z,26.70
2023-01-17T04:45:47.396Z,26.10
2023-01-17T04:48:49.648Z,37.93
2023-01-17T04:51:51.708Z,27.27
2023-01-17T04:54:53.991Z,28.57
2023-01-17T04:57:56.164Z,33.70
2023-01-17T05:01:04.081Z,25.80
2023-01-17T05:04:06.189Z,25.77
2023-01-17T05:07:08.620Z,28.00
2023-01-17T05:10:11.242Z,25.80
2023-01-17T05:13:13.825Z,27.23
2023-01-17T05:16:19.222Z,26.47
2023-01-17T05:19:22.624Z,26.07
2023-01-17T05:22:24.559Z,23.40
2023-01-17T05:25:30.139Z,25.97
2023-01-17T05:28:32.102Z,28.73
2023-01-17T05:31:34.445Z,25.67
2023-01-17T05:34:36.411Z,23.40
2023-01-17T05:37:38.796Z,23.80
2023-01-17T05:40:40.774Z,23.80
2023-01-17T05:43:43.036Z,23.03
2023-01-17T05:46:45.121Z,21.53
2023-01-17T05:49:47.377Z,22.13
2023-01-17T05:52:52.772Z,22.63
2023-01-17T05:55:55.512Z,21.67
2023-01-17T05:58:57.464Z,19.87
2023-01-17T06:01:59.726Z,21.23
2023-01-17T06:05:03.450Z,17.80
2023-01-17T06:08:06.178Z,19.80
2023-01-17T06:11:08.196Z,23.00
2023-01-17T06:14:10.588Z,19.87
2023-01-17T06:17:12.815Z,16.50
2023-01-17T06:20:15.052Z,14.37
2023-01-17T06:23:17.111Z,16.87
2023-01-17T06:26:19.697Z,13.43
2023-01-17T06:29:21.729Z,15.20
2023-01-17T06:32:24.105Z,14.87
2023-01-17T06:35:26.117Z,13.43
2023-01-17T06:38:29.883Z,14.97
2023-01-17T06:41:32.024Z,15.27
2023-01-17T06:44:34.339Z,13.03
2023-01-17T06:47:39.766Z,14.73
2023-01-17T06:50:41.998Z,12.80
2023-01-17T06:53:44.181Z,17.07
2023-01-17T06:56:46.434Z,14.63
2023-01-17T06:59:48.618Z,15.50
2023-01-17T07:02:51.541Z,15.40
2023-01-17T07:05:56.335Z,18.87
2023-01-17T07:08:59.095Z,14.47
2023-01-17T07:12:02.054Z,18.10
2023-01-17T07:15:05.264Z,18.63
2023-01-17T07:18:07.701Z,18.10
2023-01-17T07:21:19.049Z,11.43
2023-01-17T07:24:21.691Z,11.17
2023-01-17T07:27:30.246Z,9.57
2023-01-17T07:30:32.514Z,11.07
2023-01-17T07:33:35.377Z,13.63
2023-01-17T07:36:37.625Z,11.63
2023-01-17T07:39:39.863Z,12.40
2023-01-17T07:42:41.913Z,9.60
2023-01-17T07:45:51.490Z,9.23
2023-01-17T07:48:53.778Z,10.60
2023-01-17T07:51:56.056Z,9.93
2023-01-17T07:54:58.006Z,10.47
2023-01-17T07:58:02.803Z,11.03
2023-01-17T08:01:07.436Z,10.33
2023-01-17T08:04:10.406Z,9.83
2023-01-17T08:07:14.047Z,11.67
2023-01-17T08:10:18.080Z,11.47
2023-01-17T08:13:22.041Z,28.70
2023-01-17T08:16:28.622Z,40.63
2023-01-17T08:19:30.704Z,19.30
2023-01-17T08:22:33.143Z,14.53
2023-01-17T08:25:35.432Z,11.50
2023-01-17T08:28:37.791Z,21.63
2023-01-17T08:31:40.964Z,9.83
2023-01-17T08:34:43.318Z,7.80
2023-01-17T08:37:45.618Z,9.87
2023-01-17T08:40:47.884Z,6.47
2023-01-17T08:43:51.960Z,7.70
2023-01-17T08:46:54.231Z,11.07
2023-01-17T08:49:56.203Z,12.47
2023-01-17T08:53:01.107Z,23.33
2023-01-17T08:56:05.357Z,16.63
2023-01-17T08:59:07.710Z,16.13
2023-01-17T09:02:15.368Z,14.77
2023-01-17T09:05:17.677Z,9.67
2023-01-17T09:08:19.766Z,13.50
2023-01-17T09:11:22.170Z,9.70
2023-01-17T09:14:24.416Z,6.13
2023-01-17T09:17:26.770Z,23.10
2023-01-17T09:20:30.798Z,15.67
2023-01-17T09:23:33.187Z,10.87
2023-01-17T09:26:35.517Z,7.93
2023-01-17T09:29:37.839Z,12.27
2023-01-17T09:32:39.893Z,18.93
2023-01-17T09:35:42.351Z,17.33
2023-01-17T09:38:44.659Z,9.87
2023-01-17T09:42:16.889Z,16.60
2023-01-17T09:45:20.369Z,23.00
2023-01-17T09:48:39.139Z,14.40
2023-01-17T09:51:42.615Z,24.37
2023-01-17T09:54:48.043Z,33.80
2023-01-17T09:58:08.568Z,19.20
2023-01-17T10:01:12.304Z,7.20
2023-01-17T10:04:32.814Z,11.77
2023-01-17T10:07:50.115Z,6.20
2023-01-17T10:11:06.243Z,6.37
2023-01-17T10:14:23.501Z,4.13
2023-01-17T10:18:03.001Z,6.10
2023-01-17T10:21:52.348Z,5.77
2023-01-17T10:24:57.209Z,8.20
2023-01-17T10:28:04.972Z,18.83
2023-01-17T10:31:22.181Z,3.90
2023-01-17T10:34:49.371Z,5.67
2023-01-17T10:37:57.838Z,3.87
2023-01-17T10:41:08.880Z,3.27
2023-01-17T10:44:16.043Z,3.43
2023-01-17T10:47:23.490Z,3.73
2023-01-17T10:50:28.521Z,3.47
2023-01-17T10:53:39.855Z,3.60
2023-01-17T10:56:42.012Z,3.33
2023-01-17T10:59:44.496Z,4.13
2023-01-17T11:02:50.830Z,4.40
2023-01-17T11:06:18.099Z,8.87
2023-01-17T11:09:20.712Z,9.80
2023-01-17T11:12:44.953Z,4.33
2023-01-17T11:15:50.528Z,3.67
2023-01-17T11:19:21.652Z,3.50
2023-01-17T11:22:24.930Z,9.07
2023-01-17T11:25:28.695Z,3.80
2023-01-17T11:28:33.323Z,6.00
2023-01-17T11:31:35.614Z,4.13
2023-01-17T11:34:38.455Z,3.30
2023-01-17T11:37:52.169Z,3.50
2023-01-17T11:41:14.189Z,3.43
2023-01-17T11:44:24.682Z,5.37
2023-01-17T11:47:26.690Z,7.47
2023-01-17T11:50:29.274Z,11.80
2023-01-17T11:53:40.508Z,5.10
2023-01-17T11:56:46.096Z,5.57
2023-01-17T11:59:48.515Z,2.83
2023-01-17T12:02:53.915Z,2.63
2023-01-17T12:06:05.557Z,4.00
2023-01-17T12:09:30.030Z,7.83
2023-01-17T12:13:01.610Z,4.90
2023-01-17T12:16:28.898Z,3.80
2023-01-17T12:19:38.871Z,4.57
2023-01-17T12:23:25.692Z,8.23
2023-01-17T12:27:06.429Z,4.03
2023-01-17T12:30:38.175Z,3.87
2023-01-17T12:33:55.104Z,4.80
2023-01-17T12:37:06.932Z,4.27
2023-01-17T12:40:30.591Z,3.90
2023-01-17T12:43:43.320Z,4.07
2023-01-17T12:46:59.419Z,3.97
2023-01-17T12:50:31.197Z,4.30
2023-01-17T12:53:59.435Z,5.60
2023-01-17T12:57:23.244Z,5.20
2023-01-17T13:00:29.770Z,3.07
2023-01-17T13:03:57.932Z,3.47
2023-01-17T13:07:00.177Z,4.80
2023-01-17T13:10:08.442Z,3.77
2023-01-17T13:13:30.596Z,4.20
2023-01-17T13:16:42.974Z,3.60
2023-01-17T13:20:00.165Z,3.57
2023-01-17T13:23:12.749Z,2.50
2023-01-17T13:26:27.396Z,4.27
2023-01-17T13:29:48.539Z,2.30
2023-01-17T13:33:08.384Z,2.50
2023-01-17T13:36:16.785Z,3.20
2023-01-17T13:39:29.630Z,3.63
2023-01-17T13:42:41.467Z,3.77
2023-01-17T13:45:59.383Z,3.53
2023-01-17T13:49:42.351Z,3.63
2023-01-17T13:52:44.442Z,4.80
2023-01-17T13:55:59.120Z,4.53
2023-01-17T13:59:03.277Z,6.93
2023-01-17T14:02:31.534Z,5.27
2023-01-17T14:05:39.619Z,5.03
2023-01-17T14:08:45.441Z,3.87
2023-01-17T14:12:10.475Z,3.67
2023-01-17T14:15:25.615Z,5.83
2023-01-17T14:18:48.407Z,3.20
2023-01-17T14:21:50.953Z,10.03
2023-01-17T14:25:11.663Z,6.97
2023-01-17T14:28:32.532Z,5.20
2023-01-17T14:31:34.605Z,4.23
2023-01-17T14:34:37.480Z,4.07
2023-01-17T14:37:52.727Z,4.07
2023-01-17T14:41:20.190Z,4.83
2023-01-17T14:44:22.733Z,3.43
2023-01-17T14:47:26.573Z,2.83
2023-01-17T14:50:35.296Z,2.97
2023-01-17T14:53:37.666Z,4.43
2023-01-17T14:56:39.796Z,4.53
2023-01-17T14:59:42.265Z,3.73
2023-01-17T15:02:45.110Z,4.00
2023-01-17T15:05:50.926Z,8.17
2023-01-17T15:08:55.664Z,7.17
2023-01-17T15:11:58.373Z,9.20
2023-01-17T15:15:02.095Z,14.50
2023-01-17T15:18:19.677Z,18.03
2023-01-17T15:21:24.956Z,15.27
2023-01-17T15:24:34.410Z,13.10
2023-01-17T15:27:38.091Z,16.27
2023-01-17T15:31:03.629Z,16.90
2023-01-17T15:34:21.147Z,16.00
2023-01-17T15:37:30.950Z,19.23
2023-01-17T15:40:33.212Z,19.73
2023-01-17T15:43:35.970Z,14.63
2023-01-17T15:46:43.416Z,15.73
2023-01-17T15:49:51.994Z,18.37
2023-01-17T15:53:05.608Z,17.97
2023-01-17T15:56:24.260Z,20.50
2023-01-17T15:59:48.275Z,15.87
2023-01-17T16:02:58.951Z,15.13
2023-01-17T16:06:02.966Z,16.37
2023-01-17T16:09:24.888Z,16.40
2023-01-17T16:12:26.884Z,17.60
2023-01-17T16:15:30.213Z,21.20
2023-01-17T16:18:32.200Z,30.43
2023-01-17T16:21:34.628Z,27.53
2023-01-17T16:24:36.724Z,22.87
2023-01-17T16:27:41.416Z,19.17
2023-01-17T16:30:45.059Z,20.33
2023-01-17T16:33:49.825Z,21.33
2023-01-17T16:36:54.935Z,24.53
2023-01-17T16:39:57.254Z,19.90
2023-01-17T16:43:00.433Z,19.50
2023-01-17T16:46:02.987Z,37.43
2023-01-17T16:49:06.145Z,29.43
2023-01-17T16:52:08.395Z,45.03
2023-01-17T16:55:13.306Z,39.90
2023-01-17T16:58:16.778Z,34.10
2023-01-17T17:01:21.286Z,33.67
2023-01-17T17:04:24.115Z,27.23
2023-01-17T17:07:26.195Z,36.53
2023-01-17T17:10:28.565Z,32.00
2023-01-17T17:13:30.554Z,32.40
2023-01-17T17:16:33.935Z,34.63
2023-01-17T17:19:36.151Z,32.03
2023-01-17T17:22:39.816Z,30.03
2023-01-17T17:25:41.776Z,29.90
2023-01-17T17:28:44.008Z,28.37
2023-01-17T17:31:46.216Z,38.27
2023-01-17T17:34:50.673Z,32.40
2023-01-17T17:37:52.928Z,35.37
2023-01-17T17:40:55.447Z,40.03
2023-01-17T17:43:59.623Z,46.60
2023-01-17T17:47:02.219Z,49.03
2023-01-17T17:50:04.471Z,37.10
2023-01-17T17:53:07.283Z,47.07
2023-01-17T17:56:09.587Z,41.63
2023-01-17T17:59:13.913Z,44.00
2023-01-17T18:02:16.460Z,41.17
2023-01-17T18:05:18.767Z,54.87
2023-01-17T18:08:21.644Z,47.57
2023-01-17T18:11:26.110Z,52.60
2023-01-17T18:14:28.274Z,44.30
2023-01-17T18:17:30.583Z,44.97
2023-01-17T18:20:33.062Z,47.77
2023-01-17T18:23:38.664Z,53.53
2023-01-17T18:26:47.112Z,52.40
2023-01-17T18:29:49.576Z,59.77
2023-01-17T18:32:51.549Z,72.10
2023-01-17T18:35:55.710Z,66.10
2023-01-17T18:38:58.048Z,66.00
2023-01-17T18:42:00.607Z,52.67
2023-01-17T18:45:02.640Z,58.20
2023-01-17T18:48:05.610Z,54.63
2023-01-17T18:51:13.510Z,56.87
2023-01-17T18:54:16.483Z,78.67
2023-01-17T18:57:18.473Z,70.40
2023-01-17T19:00:21.419Z,109.90
2023-01-17T19:03:31.474Z,104.13
2023-01-17T19:06:37.303Z,90.27
2023-01-17T19:09:39.308Z,50.60
2023-01-17T19:12:41.762Z,71.80
2023-01-17T19:15:43.736Z,71.30
2023-01-17T19:18:46.939Z,50.70
2023-01-17T19:21:52.013Z,57.63
2023-01-17T19:24:54.957Z,47.00
2023-01-17T19:27:58.330Z,58.43
2023-01-17T19:31:27.340Z,51.40
2023-01-17T19:34:29.463Z,70.67
2023-01-17T19:37:31.774Z,46.83
2023-01-17T19:40:33.826Z,53.13
2023-01-17T19:43:36.539Z,48.70
2023-01-17T19:46:39.070Z,59.80
2023-01-17T19:49:42.528Z,52.70
2023-01-17T19:52:44.642Z,68.40
2023-01-17T19:55:47.066Z,53.97
2023-01-17T19:58:49.980Z,64.23
2023-01-17T20:01:52.390Z,52.60
2023-01-17T20:04:54.681Z,48.73
2023-01-17T20:07:57.405Z,45.77
2023-01-17T20:11:14.819Z,49.40
2023-01-17T20:14:17.387Z,72.53
2023-01-17T20:17:19.432Z,37.17
2023-01-17T20:20:22.780Z,33.43
2023-01-17T20:23:24.948Z,26.83
2023-01-17T20:26:36.093Z,34.67
2023-01-17T20:29:40.615Z,25.93
2023-01-17T20:32:42.929Z,33.23
2023-01-17T20:35:45.143Z,29.40
2023-01-17T20:38:48.725Z,31.57
2023-01-17T20:41:51.586Z,32.70
2023-01-17T20:44:53.905Z,33.40
2023-01-17T20:47:56.521Z,32.93
2023-01-17T20:51:10.665Z,32.77
2023-01-17T20:54:15.959Z,32.67
2023-01-17T20:57:18.260Z,34.13
2023-01-17T21:00:20.742Z,32.20
2023-01-17T21:03:25.069Z,42.80
2023-01-17T21:06:27.307Z,31.77
2023-01-17T21:09:29.836Z,32.23
2023-01-17T21:12:31.860Z,35.17
2023-01-17T21:15:34.116Z,37.67
2023-01-17T21:18:36.604Z,37.63
2023-01-17T21:21:38.964Z,39.07
2023-01-17T21:24:41.076Z,46.70
2023-01-17T21:27:43.481Z,43.27
2023-01-17T21:30:46.065Z,54.43
2023-01-17T21:33:49.329Z,44.87
2023-01-17T21:36:52.277Z,53.80
2023-01-17T21:39:56.869Z,41.23
2023-01-17T21:42:58.938Z,41.90
2023-01-17T21:46:05.089Z,43.33
2023-01-17T21:49:10.671Z,57.90
2023-01-17T21:52:13.080Z,52.97
2023-01-17T21:55:35.054Z,64.33
2023-01-17T21:58:43.416Z,58.70
2023-01-17T22:01:45.509Z,93.00
2023-01-17T22:04:47.889Z,87.57
2023-01-17T22:08:11.113Z,75.77
2023-01-17T22:11:20.124Z,45.03
2023-01-17T22:14:22.280Z,53.90
2023-01-17T22:17:24.600Z,64.40
2023-01-17T22:20:26.739Z,83.67
2023-01-17T22:23:29.040Z,67.67
2023-01-17T22:26:31.758Z,93.13
2023-01-17T22:29:36.335Z,90.27
2023-01-17T22:32:38.866Z,56.60
2023-01-17T22:35:41.226Z,66.53
2023-01-17T22:38:43.759Z,111.77
2023-01-17T22:41:46.369Z,85.83
2023-01-17T22:44:48.572Z,84.17
2023-01-17T22:47:50.805Z,87.37
2023-01-17T22:50:58.414Z,109.23
2023-01-17T22:54:01.290Z,95.07
2023-01-17T22:57:03.273Z,85.23
2023-01-17T23:00:14.401Z,68.47
2023-01-17T23:03:17.608Z,100.73
2023-01-17T23:06:24.888Z,84.83
2023-01-17T23:09:27.103Z,95.73
2023-01-17T23:12:29.480Z,83.33
2023-01-17T23:15:50.001Z,61.57
2023-01-17T23:19:10.989Z,59.93
2023-01-17T23:22:20.296Z,64.60
2023-01-17T23:25:22.899Z,59.37
2023-01-17T23:28:24.897Z,64.93
2023-01-17T23:31:27.222Z,68.43
2023-01-17T23:34:29.292Z,54.77
2023-01-17T23:37:50.326Z,72.17
2023-01-17T23:41:17.432Z,156.00
2023-01-17T23:44:19.724Z,119.83
2023-01-17T23:47:21.752Z,115.63
2023-01-17T23:50:24.061Z,56.63
2023-01-17T23:53:27.337Z,60.27
2023-01-17T23:56:29.608Z,61.07
2023-01-17T23:59:32.180Z,50.90
